aviador You're here:

KLFT Decoded Metar

LAFAYETTE in LA, USA
Report Time2017-07-24 15:53:00
UTC Time2017-07-24 16:44:10
Flight Rules vfr VFR
Wind250° at 16 kt
W.Decomp.*RWY 22: 14.3 kt HW 7.3 kt RCW
RWY 29: 11.7 kt HW 10.9 kt LCW
W.Rank250° ranks 22
Current wind is above 250° avg. (6.7)
Visibility9999 m
Phenomena:N/A
Clouds:Few 030 Hf
Scattered 037 Hf
Expected CloudBase > 3,200 ft AGL from Temp-Dew spread
CeilingNone
Temp32°C (ISA +17)
Dew Point24°C (63% RH)
Heat Index38.0°C
QNH1017 hPa
Density Alt2,241 ft
Elevation36 ft
Report Wrong Elevation
Raw Report
KLFT 241553Z 25016KT 10SM FEW030 SCT037 32/24 A3002 RMK AO2 LTG
DSNT NW-NE SLP163 T03170244=

Extra information for KLFT:More info

Metar Taf Metar & Taf Last 4 Metars F.Rules Stats Wind Profile Meteogram Temp Stats Airport Information Weather charts Add Link Nearby VenuesMetar ALERT Operation Metar Decoded Social comments

AIRNAV info for KLFT